首页
METAR-TAF:

METAR-TAF

机场 :

倫敦希斯路機場, 英格兰

纬度: 51-29N, 经度: 000-27W, 海拔: 24米

当前天气观测

该预报发布于35分钟前的22:50 UTC
风速3节,风向
温度 4°C
湿度 93%
气压 1029 hPa
能見度: 6000

METAR: EGLL 022250Z AUTO 01003KT 6000 NCD 04/03 Q1029 NOSIG

时间: 23:25 (23:25 UTC)

预报

该预报发布于6小时和29分钟前的16:56 UTC
预报有效从02日的 18点(UTC)到 03日的 24点(UTC)
风速4节,风向东转东北
能見度: 8000
少量云层高于1200英尺
几率 30% :
短暂存在
从 02日的 18点(UTC)到 02日的 21点(UTC)
能见度10公里或以上
成为
从 02日的 23点(UTC)到 03日的 02点(UTC)
能見度: 4000
多云层高于500英尺
轻雾
短暂存在
从 03日的 02点(UTC)到 03日的 10点(UTC)
多云层高于300英尺
几率 30% :
短暂存在
从 03日的 03点(UTC)到 03日的 09点(UTC)
能見度: 1400
成为
从 03日的 10点(UTC)到 03日的 13点(UTC)
能見度: 7000
散云层高于1000英尺
短暂存在
从 03日的 13点(UTC)到 03日的 24点(UTC)
多云层高于800英尺
阵雨
几率 40% :
短暂存在
从 03日的 18点(UTC)到 03日的 24点(UTC)
能見度: 4000
多云层高于400英尺
轻雾

TAF: EGLL 021656Z 0218/0324 06004KT 8000 FEW012 PROB30 TEMPO 0218/0221 9999 BECMG 0223/0302 4000 BR BKN005 TEMPO 0302/0310 BKN003 PROB30 TEMPO 0303/0309 1400 BECMG 0310/0313 7000 NSW SCT010 TEMPO 0313/0324 SHRA BKN008 PROB40 TEMPO 0318/0324 4000 BR BKN004

超过4000个机场的气象观测和天气预报(METAR&TAF报告)。

可查询的气象台以黄色和红色小点在地图上表示。

将鼠标移到小点上方,可查看气象台名称。

然后点击查看天气观测和预报。

如需切换地图:点击带黑十字的绿色按钮放大地图;点击带横线的绿色按钮缩小地图;或者点击绿色箭头查看邻近地区的地图。


METAR-TAF: